Time;durP1;ratioP1;P1;durP2;ratioP2;P2;SDS_P1;SDS_P2;PMS_P1;PMS_P2;Temp;Humidity;BMP_temperature;BMP_pressure;BME280_temperature;BME280_humidity;BME280_pressure;Samples;Min_cycle;Max_cycle;Signal;HPM_P1;HPM_P2
2022/02/20 00:02:16;;;;;;;6.80;1.80;;;9.00;99.90;;;;;;4967028;28;20647;-88
2022/02/20 00:04:42;;;;;;;8.87;1.90;;;8.80;99.90;;;;;;4979698;28;20191;-87
2022/02/20 00:07:09;;;;;;;10.47;1.37;;;8.80;99.90;;;;;;4979569;28;20179;-88
2022/02/20 00:09:36;;;;;;;7.17;1.37;;;8.80;99.90;;;;;;4979809;28;20669;-88
2022/02/20 00:12:01;;;;;;;8.47;1.60;;;8.80;99.90;;;;;;4964296;28;20180;-88
2022/02/20 00:14:28;;;;;;;12.03;1.77;;;8.90;99.90;;;;;;4979633;28;20550;-88
2022/02/20 00:16:53;;;;;;;9.30;1.80;;;8.90;99.90;;;;;;4972433;28;20242;-88
2022/02/20 00:19:20;;;;;;;10.43;1.77;;;8.80;99.90;;;;;;4959981;28;20271;-88
2022/02/20 00:21:45;;;;;;;12.90;2.10;;;8.80;99.90;;;;;;4959813;28;20328;-87
2022/02/20 00:24:11;;;;;;;7.97;1.40;;;8.70;99.90;;;;;;4959978;28;20308;-88
2022/02/20 00:26:37;;;;;;;10.37;1.27;;;8.80;99.90;;;;;;4959933;28;20185;-88
2022/02/20 00:29:02;;;;;;;6.47;1.40;;;8.90;99.90;;;;;;4966667;28;20171;-88
2022/02/20 00:31:28;;;;;;;10.70;1.80;;;8.90;99.90;;;;;;4978015;28;20175;-88
2022/02/20 00:33:54;;;;;;;9.20;1.23;;;8.80;99.90;;;;;;4979400;28;20541;-88
2022/02/20 00:36:19;;;;;;;9.47;1.60;;;8.80;99.90;;;;;;4978804;28;20519;-87
2022/02/20 00:38:45;;;;;;;6.23;1.27;;;8.70;99.90;;;;;;4972137;28;20164;-88
2022/02/20 00:41:10;;;;;;;10.07;1.73;;;8.70;99.90;;;;;;4959646;28;20188;-89
2022/02/20 00:43:37;;;;;;;9.27;1.53;;;8.70;99.90;;;;;;4959538;28;20214;-88
2022/02/20 00:46:03;;;;;;;10.30;1.43;;;8.70;99.90;;;;;;4959556;28;20192;-87
2022/02/20 00:48:28;;;;;;;7.63;1.40;;;8.70;99.90;;;;;;4959777;28;20181;-89
2022/02/20 00:50:54;;;;;;;8.17;2.00;;;8.70;99.90;;;;;;4963349;28;20169;-88
2022/02/20 00:53:20;;;;;;;6.73;1.83;;;8.70;99.90;;;;;;4977401;28;20180;-88
2022/02/20 00:55:45;;;;;;;9.03;1.40;;;8.80;99.90;;;;;;4975939;28;20208;-87
2022/02/20 00:58:11;;;;;;;7.80;1.33;;;8.70;99.90;;;;;;4967626;28;20203;-87
2022/02/20 01:00:37;;;;;;;7.87;1.27;;;8.70;99.90;;;;;;4978596;28;20226;-87
2022/02/20 01:03:06;;;;;;;7.90;1.63;;;8.60;99.90;;;;;;4974063;28;20315;-88
2022/02/20 01:05:32;;;;;;;8.37;1.40;;;8.60;99.90;;;;;;4964813;28;20223;-88
2022/02/20 01:07:57;;;;;;;8.50;1.43;;;8.60;99.90;;;;;;4966942;28;20250;-88
2022/02/20 01:10:23;;;;;;;6.00;1.30;;;8.60;99.90;;;;;;4971342;28;20179;-87
2022/02/20 01:12:50;;;;;;;4.37;1.60;;;8.60;99.90;;;;;;4972451;28;20611;-87
2022/02/20 01:15:18;;;;;;;7.27;1.40;;;8.50;99.90;;;;;;4971831;28;20181;-88
2022/02/20 01:17:44;;;;;;;5.93;0.93;;;8.50;99.90;;;;;;4978074;28;20176;-87
2022/02/20 01:20:10;;;;;;;7.13;1.67;;;8.50;99.90;;;;;;4968514;28;20657;-87
2022/02/20 01:22:36;;;;;;;5.47;1.00;;;8.50;99.90;;;;;;4966905;28;20205;-87
2022/02/20 01:25:03;;;;;;;3.43;1.10;;;8.60;99.90;;;;;;4978302;28;20184;-87
2022/02/20 01:27:29;;;;;;;7.50;1.20;;;8.60;99.90;;;;;;4977944;28;20181;-87
2022/02/20 01:29:55;;;;;;;6.67;1.37;;;8.50;99.90;;;;;;4973682;28;20678;-88
2022/02/20 01:32:21;;;;;;;7.30;1.50;;;8.40;99.90;;;;;;4974131;28;20188;-88
2022/02/20 01:34:47;;;;;;;6.40;1.30;;;8.40;99.90;;;;;;4969150;28;20271;-87
2022/02/20 01:37:12;;;;;;;6.17;1.30;;;8.50;99.90;;;;;;4976410;28;20211;-87
2022/02/20 01:39:38;;;;;;;2.77;1.00;;;8.50;99.90;;;;;;4971958;28;20354;-87
2022/02/20 01:42:04;;;;;;;6.07;1.83;;;8.60;99.90;;;;;;4970419;28;20594;-87
2022/02/20 01:44:33;;;;;;;4.43;0.90;;;8.50;99.90;;;;;;4957337;28;20306;-87
2022/02/20 01:47:07;;;;;;;6.07;1.20;;;8.40;99.90;;;;;;4957245;28;20176;-87
2022/02/20 01:49:32;;;;;;;5.33;1.43;;;8.50;99.90;;;;;;4958110;28;20195;-88
2022/02/20 01:51:58;;;;;;;7.73;1.20;;;8.40;99.90;;;;;;4958685;28;20173;-88
2022/02/20 01:54:23;;;;;;;7.90;1.33;;;8.40;99.90;;;;;;4958373;28;20530;-88
2022/02/20 01:56:50;;;;;;;7.13;1.30;;;8.40;99.90;;;;;;4958522;28;20728;-87
2022/02/20 01:59:17;;;;;;;6.73;1.17;;;8.40;99.90;;;;;;4958260;28;20197;-87
2022/02/20 02:01:42;;;;;;;10.17;1.73;;;8.40;99.90;;;;;;4958508;28;20185;-88
2022/02/20 02:04:08;;;;;;;10.93;2.10;;;8.40;99.90;;;;;;4957785;28;20701;-87
2022/02/20 02:06:34;;;;;;;9.27;2.23;;;8.40;99.90;;;;;;4958355;28;20178;-88
2022/02/20 02:09:00;;;;;;;5.37;1.13;;;8.30;99.90;;;;;;4958200;28;20185;-88
2022/02/20 02:11:26;;;;;;;7.90;1.67;;;8.40;99.90;;;;;;4957922;28;20601;-87
2022/02/20 02:13:52;;;;;;;8.53;2.47;;;8.30;99.90;;;;;;4957987;28;20244;-88
2022/02/20 02:16:21;;;;;;;7.63;2.03;;;8.40;99.90;;;;;;4958043;28;20177;-87
2022/02/20 02:18:47;;;;;;;9.83;2.83;;;8.50;99.90;;;;;;4958006;28;20630;-88
2022/02/20 02:21:13;;;;;;;10.63;1.93;;;8.60;99.90;;;;;;4958103;28;20248;-88
2022/02/20 02:23:39;;;;;;;12.53;1.83;;;8.80;99.90;;;;;;4958077;28;20576;-87
2022/02/20 02:26:06;;;;;;;10.50;2.20;;;8.70;99.90;;;;;;4957792;28;20193;-87
2022/02/20 02:28:34;;;;;;;11.30;2.00;;;8.70;99.90;;;;;;4957702;28;20180;-88
2022/02/20 02:31:03;;;;;;;12.03;2.40;;;8.90;99.90;;;;;;4957607;28;20177;-88
2022/02/20 02:33:31;;;;;;;21.93;2.57;;;9.00;99.90;;;;;;4957853;28;20183;-88
2022/02/20 02:35:58;;;;;;;13.30;2.50;;;9.10;99.90;;;;;;4957639;28;20184;-86
2022/02/20 02:38:26;;;;;;;15.67;2.57;;;9.10;99.90;;;;;;4957637;28;20185;-88
2022/02/20 02:41:01;;;;;;;12.97;2.47;;;9.10;99.90;;;;;;4957606;28;20654;-88
2022/02/20 02:43:28;;;;;;;14.20;2.60;;;9.00;99.90;;;;;;4957474;28;20213;-88
2022/02/20 02:45:54;;;;;;;23.30;3.87;;;9.20;99.90;;;;;;4957710;28;20187;-88
2022/02/20 02:48:20;;;;;;;21.33;3.17;;;9.10;99.90;;;;;;4957300;28;20184;-87
2022/02/20 02:50:46;;;;;;;18.83;3.60;;;9.00;99.90;;;;;;4957700;28;20277;-88
2022/02/20 02:53:12;;;;;;;21.77;3.17;;;9.00;99.90;;;;;;4957418;28;20174;-88
2022/02/20 02:55:37;;;;;;;20.17;3.07;;;9.00;99.90;;;;;;4956921;28;20248;-90
2022/02/20 02:58:05;;;;;;;27.73;4.23;;;9.00;99.90;;;;;;4957559;28;20186;-88
2022/02/20 03:00:33;;;;;;;26.10;4.53;;;9.10;99.90;;;;;;4957021;28;20186;-88
2022/02/20 03:02:59;;;;;;;24.87;3.97;;;8.90;99.90;;;;;;4957149;28;20221;-88
2022/02/20 03:05:25;;;;;;;27.63;3.77;;;8.80;99.90;;;;;;4957251;28;20171;-88
2022/02/20 03:07:51;;;;;;;21.13;4.13;;;8.90;99.90;;;;;;4957363;28;20245;-88
2022/02/20 03:10:16;;;;;;;23.87;4.30;;;8.90;99.90;;;;;;4973374;28;20553;-87
2022/02/20 03:12:42;;;;;;;22.43;3.53;;;9.00;99.90;;;;;;4957334;28;20185;-87
2022/02/20 03:15:08;;;;;;;28.07;4.27;;;9.00;99.90;;;;;;4957462;28;20183;-87
2022/02/20 03:17:34;;;;;;;25.50;4.90;;;8.90;99.90;;;;;;4957225;28;20192;-87
2022/02/20 03:19:59;;;;;;;28.17;4.60;;;8.90;99.90;;;;;;4957303;28;20178;-88
2022/02/20 03:22:25;;;;;;;25.97;4.53;;;8.90;99.90;;;;;;4957049;28;20184;-87
2022/02/20 03:24:50;;;;;;;33.97;4.93;;;8.80;99.90;;;;;;4957329;28;20217;-88
2022/02/20 03:27:16;;;;;;;28.03;4.77;;;8.80;99.90;;;;;;4956956;28;20272;-88
2022/02/20 03:29:42;;;;;;;30.40;4.87;;;8.80;99.90;;;;;;4957162;28;20204;-87
2022/02/20 03:32:08;;;;;;;26.87;5.50;;;8.80;99.90;;;;;;4956991;28;20239;-88
2022/02/20 03:34:33;;;;;;;29.57;5.43;;;8.70;99.90;;;;;;4957145;28;20638;-87
2022/02/20 03:36:59;;;;;;;30.33;5.13;;;8.70;99.90;;;;;;4956989;28;20271;-87
2022/02/20 03:39:25;;;;;;;28.77;4.80;;;8.50;99.90;;;;;;4957148;28;20177;-87
2022/02/20 03:41:50;;;;;;;31.90;5.07;;;8.60;99.90;;;;;;4957150;28;20181;-88
2022/02/20 03:44:16;;;;;;;29.27;4.53;;;8.60;99.90;;;;;;4956882;28;20214;-87
2022/02/20 03:46:41;;;;;;;35.87;5.30;;;8.70;99.90;;;;;;4963512;28;20197;-87
2022/02/20 03:49:07;;;;;;;35.23;5.83;;;8.70;99.90;;;;;;4966046;28;20194;-87
2022/02/20 03:51:33;;;;;;;32.33;4.43;;;8.70;99.90;;;;;;4959690;28;20185;-87
2022/02/20 03:53:58;;;;;;;34.83;5.80;;;8.80;99.90;;;;;;4957455;28;20177;-88
2022/02/20 03:56:24;;;;;;;33.80;4.93;;;8.70;99.90;;;;;;4956741;28;20655;-87
2022/02/20 03:58:49;;;;;;;29.47;5.90;;;8.70;99.90;;;;;;4956561;28;20208;-88
2022/02/20 04:01:15;;;;;;;46.17;6.90;;;8.70;99.90;;;;;;4956844;28;20193;-88
2022/02/20 04:03:41;;;;;;;35.87;5.10;;;8.70;99.90;;;;;;4956681;28;20280;-88
2022/02/20 04:06:07;;;;;;;24.40;4.63;;;8.70;99.90;;;;;;4958951;28;20187;-88
2022/02/20 04:08:32;;;;;;;32.73;4.40;;;8.80;99.90;;;;;;4960357;28;20556;-88
2022/02/20 04:10:59;;;;;;;27.53;4.40;;;8.90;99.90;;;;;;4960350;28;20178;-87
2022/02/20 04:13:25;;;;;;;29.27;5.13;;;8.90;99.90;;;;;;4960029;28;20224;-88
2022/02/20 04:15:51;;;;;;;26.23;4.30;;;8.80;99.90;;;;;;4960530;28;20216;-87
2022/02/20 04:18:16;;;;;;;30.40;5.73;;;8.80;99.90;;;;;;4959958;28;20255;-87
2022/02/20 04:20:42;;;;;;;31.17;4.20;;;8.90;99.90;;;;;;4960017;28;20408;-88
2022/02/20 04:23:08;;;;;;;26.27;3.97;;;8.90;99.90;;;;;;4960205;28;20216;-88
2022/02/20 04:25:34;;;;;;;27.70;4.67;;;9.00;99.90;;;;;;4959904;28;20182;-87
2022/02/20 04:27:59;;;;;;;31.60;5.23;;;9.00;99.90;;;;;;4960008;28;20184;-88
2022/02/20 04:30:25;;;;;;;29.70;4.40;;;9.00;99.90;;;;;;4959757;28;20636;-87
2022/02/20 04:32:51;;;;;;;18.70;3.13;;;9.00;99.90;;;;;;4959846;28;20608;-88
2022/02/20 04:35:17;;;;;;;20.57;4.00;;;9.00;99.90;;;;;;4959978;28;20282;-88
2022/02/20 04:37:43;;;;;;;19.80;5.27;;;9.00;99.90;;;;;;4959670;28;20177;-87
2022/02/20 04:40:09;;;;;;;23.60;4.13;;;8.90;99.90;;;;;;4960104;28;20192;-87
2022/02/20 04:42:35;;;;;;;21.60;4.03;;;9.00;99.90;;;;;;4959654;28;20730;-87
2022/02/20 04:45:01;;;;;;;32.83;4.57;;;9.10;99.90;;;;;;4959698;28;20181;-88
2022/02/20 04:47:28;;;;;;;20.33;3.27;;;9.20;99.90;;;;;;4959554;28;20671;-88
2022/02/20 04:49:53;;;;;;;21.20;4.00;;;9.30;99.90;;;;;;4959755;28;20905;-88
2022/02/20 04:52:20;;;;;;;22.23;4.07;;;9.40;99.90;;;;;;4959600;28;20175;-88
2022/02/20 04:54:46;;;;;;;18.10;3.33;;;9.20;99.90;;;;;;4959768;28;20186;-87
2022/02/20 04:57:11;;;;;;;17.80;3.87;;;9.20;99.90;;;;;;4959621;28;20565;-86
2022/02/20 04:59:37;;;;;;;21.70;4.13;;;9.30;99.90;;;;;;4959573;28;20193;-88
2022/02/20 05:02:03;;;;;;;19.67;3.50;;;9.30;99.90;;;;;;4959124;28;20186;-87
2022/02/20 05:04:29;;;;;;;19.27;3.83;;;9.30;99.90;;;;;;4959024;28;20264;-88
2022/02/20 05:06:54;;;;;;;24.83;4.00;;;9.30;99.90;;;;;;4959121;28;20582;-87
2022/02/20 05:09:20;;;;;;;30.07;3.87;;;9.30;99.90;;;;;;4959043;28;20178;-87
2022/02/20 05:11:47;;;;;;;22.03;3.97;;;9.30;99.90;;;;;;4958887;28;20174;-87
2022/02/20 05:14:12;;;;;;;21.67;3.50;;;9.30;99.90;;;;;;4959181;28;20193;-87
2022/02/20 05:16:39;;;;;;;29.63;4.47;;;9.30;99.90;;;;;;4958621;28;20182;-88
2022/02/20 05:19:04;;;;;;;24.23;4.43;;;9.30;99.90;;;;;;4959084;28;20623;-88
2022/02/20 05:21:30;;;;;;;19.20;3.43;;;9.30;99.90;;;;;;4958955;28;20182;-88
2022/02/20 05:23:55;;;;;;;18.50;3.40;;;9.20;99.90;;;;;;4958786;28;20743;-88
2022/02/20 05:26:21;;;;;;;23.23;4.07;;;9.30;99.90;;;;;;4958567;28;20193;-87
2022/02/20 05:28:47;;;;;;;23.83;4.30;;;9.20;99.90;;;;;;4958807;28;20576;-88
2022/02/20 05:31:13;;;;;;;23.03;3.87;;;9.20;99.90;;;;;;4959293;28;20189;-88
2022/02/20 05:33:39;;;;;;;17.20;3.57;;;9.30;99.90;;;;;;4958652;28;20201;-88
2022/02/20 05:36:05;;;;;;;19.43;3.30;;;9.20;99.90;;;;;;4958759;28;20182;-88
2022/02/20 05:38:30;;;;;;;16.87;2.97;;;9.30;99.90;;;;;;4958459;28;20588;-87
2022/02/20 05:40:56;;;;;;;22.67;3.60;;;9.30;99.90;;;;;;4958492;28;20524;-88
2022/02/20 05:43:22;;;;;;;17.20;4.17;;;9.30;99.90;;;;;;4958412;28;20217;-87
2022/02/20 05:45:48;;;;;;;22.10;3.70;;;9.30;99.90;;;;;;4958627;28;20545;-88
2022/02/20 05:48:16;;;;;;;11.97;2.57;;;9.40;99.90;;;;;;4958383;28;20193;-88
2022/02/20 05:50:42;;;;;;;15.00;3.30;;;9.40;99.90;;;;;;4958529;28;20239;-88
2022/02/20 05:53:07;;;;;;;20.60;3.70;;;9.40;99.90;;;;;;4958518;28;20171;-88
2022/02/20 05:55:33;;;;;;;16.47;3.70;;;9.40;99.90;;;;;;4957841;28;20309;-87
2022/02/20 05:57:58;;;;;;;13.30;3.63;;;9.40;99.90;;;;;;4958272;28;20257;-87
2022/02/20 06:00:26;;;;;;;18.30;3.37;;;9.50;99.90;;;;;;4958075;28;20631;-88
2022/02/20 06:02:52;;;;;;;14.23;2.57;;;9.50;99.90;;;;;;4958169;28;20210;-88
2022/02/20 06:05:18;;;;;;;16.80;3.07;;;9.40;99.90;;;;;;4958183;28;20289;-88
2022/02/20 06:07:46;;;;;;;17.87;3.73;;;9.40;99.90;;;;;;4958076;28;20627;-88
2022/02/20 06:10:12;;;;;;;19.07;3.60;;;9.50;99.90;;;;;;4958021;28;20182;-88
2022/02/20 06:12:38;;;;;;;16.83;3.13;;;9.60;99.90;;;;;;4958072;28;20564;-87
2022/02/20 06:15:07;;;;;;;15.27;3.20;;;9.60;99.90;;;;;;4957992;28;20182;-88
2022/02/20 06:17:33;;;;;;;16.87;2.90;;;9.50;99.90;;;;;;4957875;28;20274;-88
2022/02/20 06:19:59;;;;;;;15.10;3.60;;;9.50;99.90;;;;;;4957974;28;20602;-88
2022/02/20 06:22:24;;;;;;;18.50;3.60;;;9.60;99.90;;;;;;4957652;28;20189;-88
2022/02/20 06:24:51;;;;;;;22.83;3.17;;;9.60;99.90;;;;;;4957573;28;20190;-88
2022/02/20 06:27:17;;;;;;;20.53;2.97;;;9.70;99.90;;;;;;4957819;28;20625;-88
2022/02/20 06:29:43;;;;;;;14.90;3.17;;;9.60;99.90;;;;;;4956759;28;20187;-87
2022/02/20 06:32:08;;;;;;;17.07;4.20;;;9.50;99.90;;;;;;4957994;28;20190;-88
2022/02/20 06:34:34;;;;;;;15.00;3.30;;;9.50;99.90;;;;;;4957612;28;20226;-88
2022/02/20 06:37:00;;;;;;;18.03;3.03;;;9.50;99.90;;;;;;4957890;28;20189;-88
2022/02/20 06:39:27;;;;;;;19.73;3.43;;;9.60;99.90;;;;;;4957477;28;20179;-88
2022/02/20 06:41:53;;;;;;;12.80;3.93;;;9.60;99.90;;;;;;4957723;28;20190;-88
2022/02/20 06:44:18;;;;;;;20.83;3.83;;;9.60;99.90;;;;;;4957605;28;20237;-88
2022/02/20 06:46:44;;;;;;;18.03;3.70;;;9.60;99.90;;;;;;4957365;28;20178;-87
2022/02/20 06:49:10;;;;;;;20.37;3.40;;;9.60;99.90;;;;;;4957640;28;20180;-87
2022/02/20 06:51:36;;;;;;;13.90;3.23;;;9.70;99.90;;;;;;4957594;28;20182;-87
2022/02/20 06:54:03;;;;;;;15.57;3.57;;;9.70;99.90;;;;;;4957199;28;20211;-88
2022/02/20 06:56:29;;;;;;;17.17;3.17;;;9.60;99.90;;;;;;4957369;28;20229;-88
2022/02/20 06:58:55;;;;;;;18.00;3.97;;;9.60;99.90;;;;;;4957336;28;20206;-88
2022/02/20 07:01:21;;;;;;;14.93;3.43;;;9.60;99.90;;;;;;4962377;28;20198;-87
2022/02/20 07:03:46;;;;;;;16.83;3.50;;;9.50;99.90;;;;;;4993166;28;20232;-87
2022/02/20 07:06:13;;;;;;;17.80;3.90;;;9.50;99.90;;;;;;4993285;28;20772;-87
2022/02/20 07:08:41;;;;;;;19.97;3.87;;;9.50;99.90;;;;;;4993055;28;20176;-88
2022/02/20 07:11:09;;;;;;;20.60;3.33;;;9.50;99.90;;;;;;4993461;28;20266;-88
2022/02/20 07:13:35;;;;;;;18.60;4.00;;;9.50;99.90;;;;;;4993185;28;20621;-88
2022/02/20 07:16:10;;;;;;;14.73;3.27;;;9.50;99.90;;;;;;4993140;28;20188;-89
2022/02/20 07:18:37;;;;;;;18.60;3.50;;;9.40;99.90;;;;;;4992957;28;20183;-88
2022/02/20 07:21:06;;;;;;;18.63;3.77;;;9.40;99.90;;;;;;4993183;28;20628;-88
2022/02/20 07:23:35;;;;;;;13.77;3.60;;;9.40;99.90;;;;;;4992731;28;20302;-89
2022/02/20 07:26:02;;;;;;;20.33;3.70;;;9.40;99.90;;;;;;4993315;28;20188;-89
2022/02/20 07:28:27;;;;;;;16.27;3.93;;;9.50;99.90;;;;;;4993402;28;20195;-88
2022/02/20 07:30:53;;;;;;;16.30;3.43;;;9.50;99.90;;;;;;4993066;28;20645;-88
2022/02/20 07:33:20;;;;;;;18.00;3.67;;;9.50;99.90;;;;;;4993205;28;20182;-89
2022/02/20 07:35:47;;;;;;;17.03;3.97;;;9.70;99.90;;;;;;4992988;28;20181;-88
2022/02/20 07:38:14;;;;;;;23.87;3.70;;;9.60;99.90;;;;;;4992894;28;20248;-88
2022/02/20 07:40:39;;;;;;;17.60;3.27;;;9.80;99.90;;;;;;4994644;28;20185;-88
2022/02/20 07:43:08;;;;;;;16.07;3.17;;;9.80;99.90;;;;;;4997004;28;20217;-89
2022/02/20 07:45:34;;;;;;;14.43;3.20;;;9.80;99.90;;;;;;4997181;28;20192;-88
2022/02/20 07:48:03;;;;;;;15.37;2.90;;;9.70;99.90;;;;;;4997251;28;20174;-89
2022/02/20 07:50:39;;;;;;;14.37;3.23;;;9.70;99.90;;;;;;4996672;28;20192;-89
2022/02/20 07:53:07;;;;;;;16.40;3.80;;;9.60;99.90;;;;;;4996761;28;20196;-88
2022/02/20 07:55:33;;;;;;;14.30;3.33;;;9.60;99.90;;;;;;5004247;28;20197;-88
2022/02/20 07:58:01;;;;;;;13.40;2.83;;;9.60;99.90;;;;;;5004859;28;20201;-89
2022/02/20 08:00:30;;;;;;;11.33;3.00;;;9.50;99.90;;;;;;5000180;28;20232;-88
2022/02/20 08:03:00;;;;;;;17.27;4.07;;;9.50;99.90;;;;;;4996542;28;20724;-88
2022/02/20 08:05:26;;;;;;;8.70;2.73;;;9.50;99.90;;;;;;4996506;28;20166;-88
2022/02/20 08:08:08;;;;;;;10.83;3.00;;;9.50;99.90;;;;;;4996449;28;20269;-88
2022/02/20 09:25:12;;;;;;;9.63;2.30;;;9.20;99.90;;;;;;5142555;27;20533;-88
2022/02/20 09:27:42;;;;;;;11.80;2.50;;;10.10;99.90;;;;;;5111568;28;20549;-88
2022/02/20 09:30:09;;;;;;;9.00;3.37;;;10.10;99.90;;;;;;5104429;27;20550;-91
2022/02/20 09:32:36;;;;;;;19.50;3.07;;;10.10;99.90;;;;;;5113456;28;20555;-89
2022/02/20 09:35:04;;;;;;;21.37;3.50;;;10.10;99.90;;;;;;5113884;28;20636;-88
2022/02/20 09:37:32;;;;;;;11.77;2.80;;;10.10;99.90;;;;;;5097029;28;20191;-88
2022/02/20 09:40:01;;;;;;;14.37;3.37;;;10.10;99.90;;;;;;5093331;28;20183;-91
2022/02/20 09:42:27;;;;;;;13.03;3.13;;;10.20;99.90;;;;;;5108947;28;20181;-89
2022/02/20 09:44:56;;;;;;;15.70;3.27;;;10.20;99.90;;;;;;5112917;28;20241;-89
2022/02/20 09:47:26;;;;;;;16.43;3.53;;;10.20;99.90;;;;;;5108708;28;20162;-89
2022/02/20 09:50:01;;;;;;;16.83;3.17;;;10.30;99.90;;;;;;5093744;28;20182;-89
2022/02/20 09:52:27;;;;;;;15.10;4.17;;;10.40;99.90;;;;;;5093047;28;20153;-89
2022/02/20 09:54:53;;;;;;;16.73;3.87;;;10.40;99.90;;;;;;5093364;28;20165;-88
2022/02/20 09:57:22;;;;;;;15.47;3.40;;;10.50;99.90;;;;;;5097466;28;20248;-89
2022/02/20 09:59:48;;;;;;;19.93;3.37;;;10.50;99.90;;;;;;5112861;28;20180;-89
2022/02/20 10:02:19;;;;;;;22.53;3.90;;;10.50;99.90;;;;;;5112959;28;20177;-88
2022/02/20 10:04:49;;;;;;;19.33;3.80;;;10.60;99.90;;;;;;5109279;27;20166;-89
2022/02/20 10:07:32;;;;;;;16.57;3.57;;;10.70;99.90;;;;;;5112894;28;20153;-89
2022/02/20 10:10:02;;;;;;;14.83;2.93;;;10.70;99.90;;;;;;5115812;28;20184;-90
2022/02/20 10:12:29;;;;;;;17.73;4.77;;;10.80;99.90;;;;;;5100366;28;20693;-89
2022/02/20 10:14:56;;;;;;;11.57;3.10;;;10.80;99.90;;;;;;5092342;28;20635;-90
2022/02/20 10:17:28;;;;;;;17.10;4.23;;;10.80;99.90;;;;;;5092474;28;20187;-90
2022/02/20 10:19:58;;;;;;;16.53;3.23;;;10.90;99.90;;;;;;5092429;28;20176;-90
2022/02/20 10:22:29;;;;;;;17.80;3.33;;;10.90;99.90;;;;;;5092292;28;20174;-90
2022/02/20 10:25:06;;;;;;;13.97;3.53;;;10.90;99.90;;;;;;5065207;28;20214;-91
2022/02/20 10:27:35;;;;;;;16.77;3.67;;;11.00;99.90;;;;;;5076249;28;20269;-90
2022/02/20 10:30:17;;;;;;;18.03;4.13;;;10.90;99.90;;;;;;5077766;28;20253;-90
2022/02/20 10:33:02;;;;;;;18.87;3.73;;;11.00;99.90;;;;;;5077465;28;20285;-90
2022/02/20 10:35:32;;;;;;;20.50;3.90;;;10.90;99.90;;;;;;5064359;28;20273;-90
2022/02/20 10:37:59;;;;;;;21.53;4.07;;;11.00;99.90;;;;;;5078678;28;20180;-91
2022/02/20 10:40:34;;;;;;;19.43;4.40;;;10.90;99.90;;;;;;5078608;28;20253;-92
2022/02/20 10:43:04;;;;;;;25.47;4.53;;;10.90;99.90;;;;;;5078086;28;20177;-91
2022/02/20 10:45:38;;;;;;;22.77;3.93;;;10.90;99.90;;;;;;5078501;28;20204;-90
2022/02/20 10:48:16;;;;;;;18.80;4.90;;;10.80;99.90;;;;;;5078221;28;20230;-90
2022/02/20 10:50:56;;;;;;;25.30;4.33;;;10.90;99.90;;;;;;5078027;28;20170;-91
2022/02/20 10:53:31;;;;;;;17.23;4.03;;;10.90;99.90;;;;;;5078456;28;20194;-90
2022/02/20 10:55:59;;;;;;;21.80;5.60;;;10.90;99.90;;;;;;5078474;28;20515;-90
2022/02/20 10:58:30;;;;;;;17.33;4.13;;;10.90;99.90;;;;;;5087575;28;20525;-91
2022/02/20 11:00:58;;;;;;;21.97;4.43;;;10.90;99.90;;;;;;5079864;28;20165;-91
2022/02/20 11:03:32;;;;;;;21.70;4.53;;;10.90;99.90;;;;;;5079791;28;20170;-90
2022/02/20 12:14:44;;;;;;;27.97;5.33;;;10.60;99.90;;;;;;5052556;28;20698;-88
2022/02/20 12:17:10;;;;;;;23.97;6.00;;;10.70;99.90;;;;;;5035294;28;20160;-89
2022/02/20 12:19:38;;;;;;;27.97;5.43;;;10.70;99.90;;;;;;5036111;28;20206;-89
2022/02/20 12:22:20;;;;;;;33.43;5.60;;;10.80;99.90;;;;;;5017240;28;20206;-89
2022/02/20 12:25:02;;;;;;;29.63;5.73;;;10.80;99.90;;;;;;5025535;28;20171;-89
2022/02/20 12:27:37;;;;;;;26.60;5.73;;;10.80;99.90;;;;;;5031486;28;20217;-88
2022/02/20 12:30:13;;;;;;;22.77;6.60;;;10.80;99.90;;;;;;5034206;28;20228;-87
2022/02/20 12:32:47;;;;;;;29.07;5.30;;;10.90;99.90;;;;;;5029092;28;20163;-91
2022/02/20 12:35:20;;;;;;;32.30;5.97;;;11.00;99.90;;;;;;5028205;28;20169;-87
2022/02/20 12:37:54;;;;;;;26.87;6.03;;;11.00;99.90;;;;;;5038816;28;20174;-85
2022/02/20 12:40:20;;;;;;;31.20;5.37;;;11.10;99.90;;;;;;5043471;28;20175;-88
2022/02/20 12:42:55;;;;;;;30.40;6.23;;;11.20;99.90;;;;;;5043105;28;20180;-88
2022/02/20 12:45:28;;;;;;;31.30;5.57;;;11.20;99.90;;;;;;5037090;28;20187;-89
2022/02/20 12:47:57;;;;;;;28.00;5.50;;;11.30;99.90;;;;;;5034187;28;20160;-89
2022/02/20 12:50:28;;;;;;;30.27;7.00;;;11.30;99.90;;;;;;5050260;28;20677;-89
2022/02/20 12:52:55;;;;;;;28.37;5.63;;;11.30;99.90;;;;;;5053940;28;20203;-89
2022/02/20 12:55:23;;;;;;;32.13;6.53;;;11.30;99.90;;;;;;5035722;28;20179;-86
2022/02/20 12:57:50;;;;;;;26.87;5.67;;;11.30;99.90;;;;;;5036933;28;20241;-88
2022/02/20 13:00:17;;;;;;;26.30;5.47;;;11.30;99.90;;;;;;5037050;28;20237;-89
2022/02/20 13:02:46;;;;;;;28.17;6.23;;;11.30;99.90;;;;;;5036854;28;20180;-90
2022/02/20 13:05:18;;;;;;;24.67;5.03;;;11.20;99.90;;;;;;5033908;28;20704;-87
2022/02/20 13:07:54;;;;;;;26.70;6.47;;;11.20;99.90;;;;;;5016062;28;20165;-87
2022/02/20 13:10:32;;;;;;;37.23;7.00;;;11.10;99.90;;;;;;5016537;28;20168;-88
2022/02/20 13:12:59;;;;;;;30.27;6.10;;;11.00;99.90;;;;;;5016595;28;20252;-88
2022/02/20 13:15:27;;;;;;;31.00;6.90;;;11.00;99.90;;;;;;5017401;28;20207;-88
2022/02/20 13:18:03;;;;;;;32.73;5.80;;;10.90;99.90;;;;;;5018936;28;20203;-90
2022/02/20 13:20:35;;;;;;;24.93;5.47;;;10.80;99.90;;;;;;5040752;28;20244;-89
2022/02/20 13:23:31;;;;;;;24.90;5.27;;;10.70;99.90;;;;;;5066869;28;20651;-88
2022/02/20 13:26:08;;;;;;;24.10;5.30;;;10.70;99.90;;;;;;5043088;28;20172;-89
2022/02/20 13:28:39;;;;;;;26.90;6.00;;;10.60;99.90;;;;;;5052981;28;20187;-88
2022/02/20 13:31:16;;;;;;;31.93;6.10;;;10.70;99.90;;;;;;5036014;28;20180;-88
2022/02/20 13:33:44;;;;;;;25.70;5.97;;;10.70;99.90;;;;;;5035760;28;20257;-86
2022/02/20 13:36:14;;;;;;;33.77;5.73;;;10.60;99.90;;;;;;5035609;28;20654;-89
2022/02/20 13:38:44;;;;;;;24.47;5.80;;;10.60;99.90;;;;;;5036507;28;20198;-86
2022/02/20 13:41:19;;;;;;;27.73;4.87;;;10.60;99.90;;;;;;5035289;28;20217;-88
2022/02/20 13:43:45;;;;;;;25.33;5.53;;;10.50;99.90;;;;;;5034816;28;20635;-85
2022/02/20 13:46:12;;;;;;;35.23;7.07;;;10.40;99.90;;;;;;5034854;28;20195;-86
2022/02/20 13:48:40;;;;;;;29.03;6.33;;;10.50;99.90;;;;;;5034377;28;20179;-86
2022/02/20 13:51:18;;;;;;;29.20;6.37;;;10.40;99.90;;;;;;5033959;28;20210;-86
2022/02/20 13:54:00;;;;;;;24.23;6.07;;;10.50;99.90;;;;;;5034112;28;20243;-86
2022/02/20 13:56:42;;;;;;;24.97;6.07;;;10.50;99.90;;;;;;5051696;28;20176;-87
2022/02/20 13:59:09;;;;;;;39.23;6.10;;;10.40;99.90;;;;;;5020816;28;20647;-86
2022/02/20 14:01:47;;;;;;;33.73;6.90;;;10.40;99.90;;;;;;5018637;28;20177;-86
2022/02/20 14:04:26;;;;;;;32.47;5.67;;;10.40;99.90;;;;;;5019011;28;20186;-87
2022/02/20 14:07:00;;;;;;;36.13;5.93;;;10.30;99.90;;;;;;5030444;28;20171;-86
2022/02/20 14:09:28;;;;;;;30.87;6.67;;;10.20;99.90;;;;;;5037428;28;20253;-86
2022/02/20 14:12:09;;;;;;;30.30;5.97;;;10.30;99.90;;;;;;5038358;28;20547;-86
2022/02/20 14:14:35;;;;;;;35.20;5.77;;;10.30;99.90;;;;;;5037598;28;20222;-86
2022/02/20 14:17:01;;;;;;;37.57;6.80;;;10.30;99.90;;;;;;5038303;28;20248;-84
2022/02/20 14:19:26;;;;;;;25.67;5.67;;;10.20;99.90;;;;;;5038149;28;20171;-85
2022/02/20 14:21:59;;;;;;;31.80;7.67;;;10.20;99.90;;;;;;5038013;28;20164;-86
2022/02/20 14:24:26;;;;;;;30.33;6.37;;;10.20;99.90;;;;;;5038167;28;20171;-86
2022/02/20 14:27:06;;;;;;;31.03;6.33;;;10.20;99.90;;;;;;5038687;28;20183;-86
2022/02/20 14:29:32;;;;;;;36.27;6.23;;;10.20;99.90;;;;;;5053247;28;20207;-86
2022/02/20 14:32:04;;;;;;;33.17;6.40;;;10.20;99.90;;;;;;5037799;28;20190;-86
2022/02/20 14:34:39;;;;;;;36.23;7.37;;;10.30;99.90;;;;;;5026977;28;20243;-89
2022/02/20 14:37:06;;;;;;;25.97;6.40;;;10.30;99.90;;;;;;5023609;28;20176;-87
2022/02/20 14:39:33;;;;;;;32.33;5.97;;;10.30;99.90;;;;;;5030311;28;20215;-87
2022/02/20 14:42:00;;;;;;;27.43;6.33;;;10.30;99.90;;;;;;5035434;28;20171;-86
2022/02/20 14:44:27;;;;;;;34.70;6.33;;;10.40;99.90;;;;;;5017907;28;20235;-86
2022/02/20 14:46:54;;;;;;;29.13;6.10;;;10.40;99.90;;;;;;5024822;28;20584;-88
2022/02/20 14:49:20;;;;;;;33.53;6.60;;;10.40;99.90;;;;;;5037267;28;20228;-86
2022/02/20 14:51:45;;;;;;;26.53;8.43;;;10.40;99.90;;;;;;5037598;28;20627;-87
2022/02/20 14:54:13;;;;;;;30.20;7.33;;;10.40;99.90;;;;;;5037404;28;20208;-88
2022/02/20 14:56:40;;;;;;;36.37;7.13;;;10.40;99.90;;;;;;5031417;28;20204;-86
2022/02/20 14:59:05;;;;;;;41.23;6.37;;;10.40;99.90;;;;;;5026276;28;20646;-89
2022/02/20 15:01:31;;;;;;;32.83;6.40;;;10.50;99.90;;;;;;5037179;28;20179;-86
2022/02/20 15:03:56;;;;;;;32.30;7.40;;;10.50;99.90;;;;;;5036811;28;20659;-85
2022/02/20 15:06:22;;;;;;;24.67;7.00;;;10.50;99.90;;;;;;5037262;28;20160;-84
2022/02/20 15:08:48;;;;;;;35.20;8.10;;;10.50;99.90;;;;;;5055060;28;20194;-86
2022/02/20 15:11:15;;;;;;;22.67;5.67;;;10.50;99.90;;;;;;5036892;28;20187;-86
2022/02/20 15:13:43;;;;;;;38.90;7.30;;;10.50;99.90;;;;;;5037438;28;20242;-86